sensor_id;sensor_type;location;lat;lon;timestamp;pressure;altitude;pressure_sealevel;temperature;humidity
26192;BME280;13935;55.672;37.764;2023-02-03T06:01:47;99334.84;;;1.56;100.00
26192;BME280;13935;55.672;37.764;2023-02-03T06:07:24;99330.28;;;1.37;100.00
26192;BME280;13935;55.672;37.764;2023-02-03T06:09:37;99341.53;;;1.47;100.00
26192;BME280;13935;55.672;37.764;2023-02-03T06:11:43;99340.63;;;1.55;100.00
26192;BME280;13935;55.672;37.764;2023-02-03T06:13:26;99337.91;;;1.67;100.00
26192;BME280;13935;55.672;37.764;2023-02-03T06:14:44;99344.38;;;1.50;100.00
26192;BME280;13935;55.672;37.764;2023-02-03T06:16:38;99340.16;;;1.53;100.00
26192;BME280;13935;55.672;37.764;2023-02-03T15:12:50;99277.97;;;2.33;100.00
26192;BME280;13935;55.672;37.764;2023-02-03T15:14:26;99274.41;;;2.45;100.00
26192;BME280;13935;55.672;37.764;2023-02-03T15:19:18;99274.13;;;2.34;100.00
26192;BME280;13935;55.672;37.764;2023-02-03T15:27:45;99283.28;;;2.42;100.00
26192;BME280;13935;55.672;37.764;2023-02-03T15:29:00;99285.75;;;2.47;100.00
26192;BME280;13935;55.672;37.764;2023-02-03T18:38:18;99362.19;;;2.35;100.00
26192;BME280;13935;55.672;37.764;2023-02-03T18:40:11;99368.31;;;2.44;100.00
26192;BME280;13935;55.672;37.764;2023-02-03T19:03:36;99378.09;;;2.45;100.00
26192;BME280;13935;55.672;37.764;2023-02-03T19:04:47;99373.75;;;2.56;100.00
26192;BME280;13935;55.672;37.764;2023-02-03T19:06:00;99375.69;;;2.43;100.00
26192;BME280;13935;55.672;37.764;2023-02-03T19:07:14;99374.22;;;2.46;100.00
26192;BME280;13935;55.672;37.764;2023-02-03T19:08:22;99377.03;;;2.49;100.00
26192;BME280;13935;55.672;37.764;2023-02-03T19:09:32;99371.13;;;2.59;100.00
26192;BME280;13935;55.672;37.764;2023-02-03T19:11:10;99374.63;;;2.60;100.00
26192;BME280;13935;55.672;37.764;2023-02-03T19:12:40;99381.38;;;2.50;100.00
26192;BME280;13935;55.672;37.764;2023-02-03T19:13:50;99387.28;;;2.52;100.00
26192;BME280;13935;55.672;37.764;2023-02-03T19:15:00;99373.94;;;2.63;100.00
26192;BME280;13935;55.672;37.764;2023-02-03T19:16:29;99370.88;;;2.64;100.00
26192;BME280;13935;55.672;37.764;2023-02-03T19:17:36;99378.50;;;2.59;100.00
26192;BME280;13935;55.672;37.764;2023-02-03T19:18:49;99390.22;;;2.59;100.00
26192;BME280;13935;55.672;37.764;2023-02-03T19:19:56;99383.28;;;2.62;100.00
26192;BME280;13935;55.672;37.764;2023-02-03T19:21:06;99378.38;;;2.55;100.00
26192;BME280;13935;55.672;37.764;2023-02-03T19:22:12;99382.34;;;2.58;100.00
26192;BME280;13935;55.672;37.764;2023-02-03T19:23:22;99379.19;;;2.56;100.00
26192;BME280;13935;55.672;37.764;2023-02-03T19:24:39;99377.16;;;2.53;100.00
26192;BME280;13935;55.672;37.764;2023-02-03T19:25:52;99375.69;;;2.43;100.00
26192;BME280;13935;55.672;37.764;2023-02-03T19:27:21;99381.81;;;2.52;100.00
26192;BME280;13935;55.672;37.764;2023-02-03T19:28:28;99380.22;;;2.51;100.00
26192;BME280;13935;55.672;37.764;2023-02-03T19:29:39;99376.56;;;2.59;100.00
26192;BME280;13935;55.672;37.764;2023-02-03T19:30:46;99370.75;;;2.61;100.00
26192;BME280;13935;55.672;37.764;2023-02-03T19:32:03;99370.97;;;2.68;100.00
26192;BME280;13935;55.672;37.764;2023-02-03T19:33:11;99380.19;;;2.63;100.00
26192;BME280;13935;55.672;37.764;2023-02-03T20:00:01;99391.41;;;2.46;100.00
26192;BME280;13935;55.672;37.764;2023-02-03T20:01:15;99395.13;;;2.54;100.00
26192;BME280;13935;55.672;37.764;2023-02-03T20:02:22;99386.66;;;2.31;100.00
26192;BME280;13935;55.672;37.764;2023-02-03T20:03:31;99396.06;;;2.34;100.00
26192;BME280;13935;55.672;37.764;2023-02-03T20:04:39;99396.22;;;2.25;100.00
26192;BME280;13935;55.672;37.764;2023-02-03T20:05:46;99393.56;;;2.41;100.00
26192;BME280;13935;55.672;37.764;2023-02-03T20:06:54;99395.63;;;2.44;100.00
26192;BME280;13935;55.672;37.764;2023-02-03T20:08:03;99397.31;;;2.36;100.00
26192;BME280;13935;55.672;37.764;2023-02-03T20:09:41;99399.75;;;2.14;100.00
26192;BME280;13935;55.672;37.764;2023-02-03T20:10:46;99396.13;;;2.10;100.00
26192;BME280;13935;55.672;37.764;2023-02-03T20:11:55;99397.69;;;2.23;100.00
26192;BME280;13935;55.672;37.764;2023-02-03T20:13:01;99407.34;;;2.32;100.00
26192;BME280;13935;55.672;37.764;2023-02-03T20:14:15;99404.00;;;2.39;100.00
26192;BME280;13935;55.672;37.764;2023-02-03T20:15:24;99406.53;;;2.44;100.00
26192;BME280;13935;55.672;37.764;2023-02-03T20:40:34;99424.03;;;2.43;100.00
26192;BME280;13935;55.672;37.764;2023-02-03T20:41:45;99427.22;;;2.45;100.00
26192;BME280;13935;55.672;37.764;2023-02-03T20:42:56;99428.34;;;2.44;100.00
26192;BME280;13935;55.672;37.764;2023-02-03T20:44:09;99428.00;;;2.45;100.00
26192;BME280;13935;55.672;37.764;2023-02-03T20:45:16;99427.00;;;2.38;100.00
26192;BME280;13935;55.672;37.764;2023-02-03T20:46:26;99430.38;;;2.47;100.00
26192;BME280;13935;55.672;37.764;2023-02-03T20:47:39;99426.31;;;2.41;100.00
26192;BME280;13935;55.672;37.764;2023-02-03T20:48:48;99429.50;;;2.43;100.00
26192;BME280;13935;55.672;37.764;2023-02-03T20:49:56;99424.03;;;2.43;100.00
26192;BME280;13935;55.672;37.764;2023-02-03T20:51:00;99427.78;;;2.38;100.00
26192;BME280;13935;55.672;37.764;2023-02-03T20:52:23;99432.69;;;2.45;100.00
26192;BME280;13935;55.672;37.764;2023-02-03T20:53:29;99435.16;;;2.50;100.00
26192;BME280;13935;55.672;37.764;2023-02-03T20:54:34;99437.09;;;2.49;100.00
26192;BME280;13935;55.672;37.764;2023-02-03T20:55:41;99432.88;;;2.52;100.00
26192;BME280;13935;55.672;37.764;2023-02-03T20:56:45;99434.69;;;2.60;100.00
26192;BME280;13935;55.672;37.764;2023-02-03T20:57:51;99432.19;;;2.55;100.00
26192;BME280;13935;55.672;37.764;2023-02-03T20:59:01;99433.56;;;2.49;100.00
26192;BME280;13935;55.672;37.764;2023-02-03T21:02:49;99432.13;;;2.27;100.00
26192;BME280;13935;55.672;37.764;2023-02-03T21:04:17;99434.97;;;2.31;100.00
26192;BME280;13935;55.672;37.764;2023-02-03T21:05:42;99445.41;;;2.29;100.00
26192;BME280;13935;55.672;37.764;2023-02-03T21:06:55;99443.16;;;2.31;100.00
26192;BME280;13935;55.672;37.764;2023-02-03T21:08:04;99440.06;;;2.32;100.00
26192;BME280;13935;55.672;37.764;2023-02-03T21:09:18;99432.13;;;2.27;100.00
26192;BME280;13935;55.672;37.764;2023-02-03T21:10:24;99439.94;;;2.41;100.00
26192;BME280;13935;55.672;37.764;2023-02-03T21:11:30;99442.44;;;2.46;100.00
26192;BME280;13935;55.672;37.764;2023-02-03T21:12:33;99439.50;;;2.39;100.00
26192;BME280;13935;55.672;37.764;2023-02-03T21:13:42;99443.13;;;2.43;100.00
26192;BME280;13935;55.672;37.764;2023-02-03T21:14:49;99434.25;;;2.46;100.00
26192;BME280;13935;55.672;37.764;2023-02-03T21:15:58;99443.50;;;2.41;100.00
26192;BME280;13935;55.672;37.764;2023-02-03T21:17:23;99447.47;;;2.44;100.00
26192;BME280;13935;55.672;37.764;2023-02-03T21:18:48;99447.25;;;2.37;100.00
26192;BME280;13935;55.672;37.764;2023-02-03T21:19:53;99449.28;;;2.28;100.00
26192;BME280;13935;55.672;37.764;2023-02-03T21:21:00;99454.41;;;2.17;100.00
26192;BME280;13935;55.672;37.764;2023-02-03T21:22:14;99454.41;;;2.17;100.00
26192;BME280;13935;55.672;37.764;2023-02-03T21:23:25;99451.00;;;1.97;100.00
26192;BME280;13935;55.672;37.764;2023-02-03T21:24:40;99452.69;;;1.89;100.00
26192;BME280;13935;55.672;37.764;2023-02-03T21:25:50;99450.44;;;1.91;100.00
26192;BME280;13935;55.672;37.764;2023-02-03T21:27:01;99453.84;;;1.88;100.00
26192;BME280;13935;55.672;37.764;2023-02-03T21:28:24;99454.28;;;1.90;100.00
26192;BME280;13935;55.672;37.764;2023-02-03T21:29:38;99456.59;;;1.88;100.00
26192;BME280;13935;55.672;37.764;2023-02-03T21:30:43;99453.63;;;1.93;100.00
26192;BME280;13935;55.672;37.764;2023-02-03T21:31:53;99451.25;;;1.92;100.00
26192;BME280;13935;55.672;37.764;2023-02-03T21:34:33;99455.66;;;1.96;100.00
26192;BME280;13935;55.672;37.764;2023-02-03T21:35:41;99466.13;;;2.06;100.00
26192;BME280;13935;55.672;37.764;2023-02-03T21:36:47;99461.09;;;2.08;100.00
26192;BME280;13935;55.672;37.764;2023-02-03T21:37:59;99456.81;;;1.95;100.00
26192;BME280;13935;55.672;37.764;2023-02-03T21:39:26;99456.34;;;1.81;100.00
26192;BME280;13935;55.672;37.764;2023-02-03T21:40:32;99465.44;;;1.85;100.00
26192;BME280;13935;55.672;37.764;2023-02-03T21:41:42;99469.16;;;1.81;100.00
26192;BME280;13935;55.672;37.764;2023-02-03T21:42:46;99473.84;;;1.92;100.00
26192;BME280;13935;55.672;37.764;2023-02-03T21:43:56;99469.53;;;2.03;100.00
26192;BME280;13935;55.672;37.764;2023-02-03T21:45:00;99462.59;;;2.06;100.00
26192;BME280;13935;55.672;37.764;2023-02-03T21:46:16;99466.56;;;1.96;100.00
26192;BME280;13935;55.672;37.764;2023-02-03T21:47:23;99466.78;;;2.03;100.00
26192;BME280;13935;55.672;37.764;2023-02-03T21:48:35;99467.94;;;2.02;100.00
26192;BME280;13935;55.672;37.764;2023-02-03T21:49:41;99469.09;;;2.01;100.00
26192;BME280;13935;55.672;37.764;2023-02-03T21:50:49;99469.75;;;1.86;100.00
26192;BME280;13935;55.672;37.764;2023-02-03T21:51:59;99466.69;;;1.88;100.00
26192;BME280;13935;55.672;37.764;2023-02-03T21:54:21;99471.78;;;1.89;100.00
26192;BME280;13935;55.672;37.764;2023-02-03T21:55:28;99471.59;;;1.94;100.00
26192;BME280;13935;55.672;37.764;2023-02-03T21:56:39;99477.69;;;1.91;100.00
26192;BME280;13935;55.672;37.764;2023-02-03T21:57:47;99469.53;;;1.91;100.00
26192;BME280;13935;55.672;37.764;2023-02-03T21:58:54;99471.09;;;1.80;100.00
26192;BME280;13935;55.672;37.764;2023-02-03T22:00:36;99482.00;;;1.80;100.00
26192;BME280;13935;55.672;37.764;2023-02-03T22:09:47;99483.84;;;1.88;100.00
26192;BME280;13935;55.672;37.764;2023-02-03T22:17:55;99484.09;;;2.07;100.00
26192;BME280;13935;55.672;37.764;2023-02-03T22:19:01;99486.34;;;2.05;100.00
26192;BME280;13935;55.672;37.764;2023-02-03T22:20:18;99488.72;;;2.18;100.00
26192;BME280;13935;55.672;37.764;2023-02-03T22:21:25;99486.34;;;2.17;100.00
26192;BME280;13935;55.672;37.764;2023-02-03T22:22:31;99481.13;;;2.24;100.00
26192;BME280;13935;55.672;37.764;2023-02-03T22:23:35;99486.13;;;2.10;100.00
26192;BME280;13935;55.672;37.764;2023-02-03T22:24:42;99490.56;;;1.91;100.00
26192;BME280;13935;55.672;37.764;2023-02-03T22:25:54;99488.97;;;2.02;100.00
